map of BDJ home
BDJ - Airport
Location
City:  Banjarmarsin, Kalimantan Selatan (South Borneo), Indonesia
Name:Syamsudin Noor Airport
ICAO:WAOO
IATA:BDJ

Details
Type:Airport (Aerodrome, Airfield)
Use:Public/Civil
Latitude:326'32"S (-3.442355)
Longitude:11445'45"E (114.762553)
Datum:WGS 1984
Elevation:66 ft (20 m)
Variation:0.70E (WMM2015v2 magnetic declination)
-0.05 annual change
Runways:1
Longest:8202 × 148 ft (2500 × 45 m), paved

Time
Time Zone:UTC+8
Local Time:

Weather
METAR:WAOO 041300Z 07002KT 9999 FEW018 26/25 Q1012

Related Locations
Nearby:
Farthest:SWBV: 12376 mi / 19917 km
Amajari (Boa Vista) [Auaris], RR, BR

Find:

   beyond  
but within

Other Information
Maps:
NOTAMs:
Links:
Sources:

  
  • flag of Indonesia
  • flag of Kalimantan Selatan (South Borneo)
  

Sectional Chart

Flight Planning
at skyvector.com

Satellite Image

Google Maps Satellite view

 

Copyright © 2004-2019 Karl L. Swartz. All rights reserved.
The Great Circle Mapper name and logo are trademarks of the Great Circle Mapper.
All other trademarks mentioned herein belong to their respective owners.
Please see credits for attibutions and further copyright information.

  Follow gcmap on Facebook Follow gcmap on Twitter GCmap on LinkedIn

hCard Microformat

Geo Microformat